sensor_id;sensor_type;location;lat;lon;timestamp;temperature;humidity
6639;DHT22;3355;52.882;8.430;2022-07-09T00:00:47;16.40;99.90
6639;DHT22;3355;52.882;8.430;2022-07-09T00:03:16;16.40;99.90
6639;DHT22;3355;52.882;8.430;2022-07-09T00:05:42;16.40;99.90
6639;DHT22;3355;52.882;8.430;2022-07-09T00:08:09;16.40;99.90
6639;DHT22;3355;52.882;8.430;2022-07-09T00:10:36;16.40;99.90
6639;DHT22;3355;52.882;8.430;2022-07-09T00:13:03;16.40;99.90
6639;DHT22;3355;52.882;8.430;2022-07-09T00:15:29;16.40;99.90
6639;DHT22;3355;52.882;8.430;2022-07-09T00:17:56;16.30;99.90
6639;DHT22;3355;52.882;8.430;2022-07-09T00:20:24;16.30;99.90
6639;DHT22;3355;52.882;8.430;2022-07-09T00:22:51;16.30;99.90
6639;DHT22;3355;52.882;8.430;2022-07-09T00:25:18;16.30;99.90
6639;DHT22;3355;52.882;8.430;2022-07-09T00:27:45;16.30;99.90
6639;DHT22;3355;52.882;8.430;2022-07-09T00:30:12;16.30;99.90
6639;DHT22;3355;52.882;8.430;2022-07-09T00:32:38;16.30;99.90
6639;DHT22;3355;52.882;8.430;2022-07-09T00:35:06;16.30;99.90
6639;DHT22;3355;52.882;8.430;2022-07-09T00:37:34;16.30;99.90
6639;DHT22;3355;52.882;8.430;2022-07-09T00:40:01;16.30;99.90
6639;DHT22;3355;52.882;8.430;2022-07-09T00:42:28;16.20;99.90
6639;DHT22;3355;52.882;8.430;2022-07-09T00:44:54;16.20;99.90
6639;DHT22;3355;52.882;8.430;2022-07-09T00:47:21;16.20;99.90
6639;DHT22;3355;52.882;8.430;2022-07-09T00:49:48;16.20;99.90
6639;DHT22;3355;52.882;8.430;2022-07-09T00:52:15;16.20;99.90
6639;DHT22;3355;52.882;8.430;2022-07-09T00:54:44;16.20;99.90
6639;DHT22;3355;52.882;8.430;2022-07-09T00:57:11;16.20;99.90
6639;DHT22;3355;52.882;8.430;2022-07-09T00:59:39;16.20;99.90
6639;DHT22;3355;52.882;8.430;2022-07-09T01:02:07;16.20;99.90
6639;DHT22;3355;52.882;8.430;2022-07-09T01:04:35;16.10;99.90
6639;DHT22;3355;52.882;8.430;2022-07-09T01:07:04;16.10;99.90
6639;DHT22;3355;52.882;8.430;2022-07-09T01:09:31;16.10;99.90
6639;DHT22;3355;52.882;8.430;2022-07-09T01:11:59;16.10;99.90
6639;DHT22;3355;52.882;8.430;2022-07-09T01:14:27;16.10;99.90
6639;DHT22;3355;52.882;8.430;2022-07-09T01:16:57;16.10;99.90
6639;DHT22;3355;52.882;8.430;2022-07-09T01:19:25;16.10;99.90
6639;DHT22;3355;52.882;8.430;2022-07-09T01:21:53;16.00;99.90
6639;DHT22;3355;52.882;8.430;2022-07-09T01:24:21;16.10;99.90
6639;DHT22;3355;52.882;8.430;2022-07-09T01:26:48;16.00;99.90
6639;DHT22;3355;52.882;8.430;2022-07-09T01:29:15;16.00;99.90
6639;DHT22;3355;52.882;8.430;2022-07-09T01:31:42;16.00;99.90
6639;DHT22;3355;52.882;8.430;2022-07-09T01:34:09;16.00;99.90
6639;DHT22;3355;52.882;8.430;2022-07-09T01:36:36;16.00;99.90
6639;DHT22;3355;52.882;8.430;2022-07-09T01:39:04;16.00;99.90
6639;DHT22;3355;52.882;8.430;2022-07-09T01:41:31;16.00;99.90
6639;DHT22;3355;52.882;8.430;2022-07-09T01:43:58;16.00;99.90
6639;DHT22;3355;52.882;8.430;2022-07-09T01:46:25;15.90;99.90
6639;DHT22;3355;52.882;8.430;2022-07-09T01:48:52;15.90;99.90
6639;DHT22;3355;52.882;8.430;2022-07-09T01:51:19;15.90;99.90
6639;DHT22;3355;52.882;8.430;2022-07-09T01:53:47;15.90;99.90
6639;DHT22;3355;52.882;8.430;2022-07-09T01:56:15;15.90;99.90
6639;DHT22;3355;52.882;8.430;2022-07-09T01:58:42;15.90;99.90
6639;DHT22;3355;52.882;8.430;2022-07-09T02:01:09;15.90;99.90
6639;DHT22;3355;52.882;8.430;2022-07-09T02:03:36;15.90;99.90
6639;DHT22;3355;52.882;8.430;2022-07-09T02:06:03;15.90;99.90
6639;DHT22;3355;52.882;8.430;2022-07-09T02:08:30;15.90;99.90
6639;DHT22;3355;52.882;8.430;2022-07-09T02:10:57;15.90;99.90
6639;DHT22;3355;52.882;8.430;2022-07-09T02:13:25;15.90;99.90
6639;DHT22;3355;52.882;8.430;2022-07-09T02:15:52;15.80;99.90
6639;DHT22;3355;52.882;8.430;2022-07-09T02:18:19;15.80;99.90
6639;DHT22;3355;52.882;8.430;2022-07-09T02:20:46;15.80;99.90
6639;DHT22;3355;52.882;8.430;2022-07-09T02:23:13;15.80;99.90
6639;DHT22;3355;52.882;8.430;2022-07-09T02:25:40;15.80;99.90
6639;DHT22;3355;52.882;8.430;2022-07-09T02:28:06;15.70;99.90
6639;DHT22;3355;52.882;8.430;2022-07-09T02:30:35;15.70;99.90
6639;DHT22;3355;52.882;8.430;2022-07-09T02:33:02;15.70;99.90
6639;DHT22;3355;52.882;8.430;2022-07-09T02:35:29;15.70;99.90
6639;DHT22;3355;52.882;8.430;2022-07-09T02:37:56;15.70;99.90
6639;DHT22;3355;52.882;8.430;2022-07-09T02:40:23;15.70;99.90
6639;DHT22;3355;52.882;8.430;2022-07-09T02:42:50;15.70;99.90
6639;DHT22;3355;52.882;8.430;2022-07-09T02:45:17;15.70;99.90
6639;DHT22;3355;52.882;8.430;2022-07-09T02:47:45;15.70;99.90
6639;DHT22;3355;52.882;8.430;2022-07-09T02:50:12;15.70;99.90
6639;DHT22;3355;52.882;8.430;2022-07-09T02:52:38;15.70;99.90
6639;DHT22;3355;52.882;8.430;2022-07-09T02:55:06;15.70;99.90
6639;DHT22;3355;52.882;8.430;2022-07-09T02:57:33;15.70;99.90
6639;DHT22;3355;52.882;8.430;2022-07-09T02:59:59;15.70;99.90
6639;DHT22;3355;52.882;8.430;2022-07-09T03:02:26;15.70;99.90
6639;DHT22;3355;52.882;8.430;2022-07-09T03:04:54;15.70;99.90
6639;DHT22;3355;52.882;8.430;2022-07-09T03:07:21;15.70;99.90
6639;DHT22;3355;52.882;8.430;2022-07-09T03:09:48;15.70;99.90
6639;DHT22;3355;52.882;8.430;2022-07-09T03:12:16;15.70;99.90
6639;DHT22;3355;52.882;8.430;2022-07-09T03:14:42;15.70;99.90
6639;DHT22;3355;52.882;8.430;2022-07-09T03:17:09;15.60;99.90
6639;DHT22;3355;52.882;8.430;2022-07-09T03:19:36;15.60;99.90
6639;DHT22;3355;52.882;8.430;2022-07-09T03:22:04;15.60;99.90
6639;DHT22;3355;52.882;8.430;2022-07-09T03:24:31;15.60;99.90
6639;DHT22;3355;52.882;8.430;2022-07-09T03:26:58;15.70;99.90
6639;DHT22;3355;52.882;8.430;2022-07-09T03:29:25;15.70;99.90
6639;DHT22;3355;52.882;8.430;2022-07-09T03:31:52;15.60;99.90
6639;DHT22;3355;52.882;8.430;2022-07-09T03:34:18;15.70;99.90
6639;DHT22;3355;52.882;8.430;2022-07-09T03:36:45;15.70;99.90
6639;DHT22;3355;52.882;8.430;2022-07-09T03:39:13;15.70;99.90
6639;DHT22;3355;52.882;8.430;2022-07-09T03:41:40;15.70;99.90
6639;DHT22;3355;52.882;8.430;2022-07-09T03:44:07;15.70;99.90
6639;DHT22;3355;52.882;8.430;2022-07-09T03:46:34;15.70;99.90
6639;DHT22;3355;52.882;8.430;2022-07-09T03:49:00;15.70;99.90
6639;DHT22;3355;52.882;8.430;2022-07-09T03:51:27;15.70;99.90
6639;DHT22;3355;52.882;8.430;2022-07-09T03:53:54;15.70;99.90
6639;DHT22;3355;52.882;8.430;2022-07-09T03:56:22;15.70;99.90
6639;DHT22;3355;52.882;8.430;2022-07-09T03:58:49;15.70;99.90
6639;DHT22;3355;52.882;8.430;2022-07-09T04:01:16;15.70;99.90
6639;DHT22;3355;52.882;8.430;2022-07-09T04:03:43;15.70;99.90
6639;DHT22;3355;52.882;8.430;2022-07-09T04:06:10;15.70;99.90
6639;DHT22;3355;52.882;8.430;2022-07-09T04:08:37;15.80;99.90
6639;DHT22;3355;52.882;8.430;2022-07-09T04:11:04;15.80;99.90
6639;DHT22;3355;52.882;8.430;2022-07-09T04:13:32;15.80;99.90
6639;DHT22;3355;52.882;8.430;2022-07-09T04:15:59;15.80;99.90
6639;DHT22;3355;52.882;8.430;2022-07-09T04:18:26;15.80;99.90
6639;DHT22;3355;52.882;8.430;2022-07-09T04:20:52;15.80;99.90
6639;DHT22;3355;52.882;8.430;2022-07-09T04:23:20;15.80;99.90
6639;DHT22;3355;52.882;8.430;2022-07-09T04:25:47;15.80;99.90
6639;DHT22;3355;52.882;8.430;2022-07-09T04:28:16;15.80;99.90
6639;DHT22;3355;52.882;8.430;2022-07-09T04:30:44;15.90;99.90
6639;DHT22;3355;52.882;8.430;2022-07-09T04:33:11;15.90;99.90
6639;DHT22;3355;52.882;8.430;2022-07-09T04:35:38;16.00;99.90
6639;DHT22;3355;52.882;8.430;2022-07-09T04:38:04;16.00;99.90
6639;DHT22;3355;52.882;8.430;2022-07-09T04:40:31;16.00;99.90
6639;DHT22;3355;52.882;8.430;2022-07-09T04:42:58;16.00;99.90
6639;DHT22;3355;52.882;8.430;2022-07-09T04:45:25;16.00;99.90
6639;DHT22;3355;52.882;8.430;2022-07-09T04:47:53;16.10;99.90
6639;DHT22;3355;52.882;8.430;2022-07-09T04:50:20;16.10;99.90
6639;DHT22;3355;52.882;8.430;2022-07-09T04:52:46;16.10;99.90
6639;DHT22;3355;52.882;8.430;2022-07-09T04:55:13;16.10;99.90
6639;DHT22;3355;52.882;8.430;2022-07-09T04:57:41;16.20;99.90
6639;DHT22;3355;52.882;8.430;2022-07-09T05:00:09;16.20;99.90
6639;DHT22;3355;52.882;8.430;2022-07-09T05:02:36;16.20;99.90
6639;DHT22;3355;52.882;8.430;2022-07-09T05:05:05;16.20;99.90
6639;DHT22;3355;52.882;8.430;2022-07-09T05:07:32;16.30;99.90
6639;DHT22;3355;52.882;8.430;2022-07-09T05:09:59;16.30;99.90
6639;DHT22;3355;52.882;8.430;2022-07-09T05:12:26;16.30;99.90
6639;DHT22;3355;52.882;8.430;2022-07-09T05:14:53;16.40;99.90
6639;DHT22;3355;52.882;8.430;2022-07-09T05:17:21;16.40;99.90
6639;DHT22;3355;52.882;8.430;2022-07-09T05:19:48;16.40;99.90
6639;DHT22;3355;52.882;8.430;2022-07-09T05:22:16;16.50;99.90
6639;DHT22;3355;52.882;8.430;2022-07-09T05:24:43;16.50;99.90
6639;DHT22;3355;52.882;8.430;2022-07-09T05:27:09;16.50;99.90
6639;DHT22;3355;52.882;8.430;2022-07-09T05:29:36;16.50;99.90
6639;DHT22;3355;52.882;8.430;2022-07-09T05:32:04;16.50;99.90
6639;DHT22;3355;52.882;8.430;2022-07-09T05:34:31;16.50;99.90
6639;DHT22;3355;52.882;8.430;2022-07-09T05:36:58;16.50;99.90
6639;DHT22;3355;52.882;8.430;2022-07-09T05:39:26;16.50;99.90
6639;DHT22;3355;52.882;8.430;2022-07-09T05:41:52;16.60;99.90
6639;DHT22;3355;52.882;8.430;2022-07-09T05:44:19;16.60;99.90
6639;DHT22;3355;52.882;8.430;2022-07-09T05:46:46;16.60;99.90
6639;DHT22;3355;52.882;8.430;2022-07-09T05:49:13;16.70;99.90
6639;DHT22;3355;52.882;8.430;2022-07-09T05:51:39;16.70;99.90
6639;DHT22;3355;52.882;8.430;2022-07-09T05:54:06;16.70;99.90
6639;DHT22;3355;52.882;8.430;2022-07-09T05:56:35;16.80;99.90
6639;DHT22;3355;52.882;8.430;2022-07-09T05:59:02;16.90;99.90
6639;DHT22;3355;52.882;8.430;2022-07-09T06:01:29;16.90;99.90
6639;DHT22;3355;52.882;8.430;2022-07-09T06:03:56;17.00;99.90
6639;DHT22;3355;52.882;8.430;2022-07-09T06:06:22;17.00;99.90
6639;DHT22;3355;52.882;8.430;2022-07-09T06:08:49;17.00;99.90
6639;DHT22;3355;52.882;8.430;2022-07-09T06:11:17;17.10;99.90
6639;DHT22;3355;52.882;8.430;2022-07-09T06:13:45;17.10;99.90
6639;DHT22;3355;52.882;8.430;2022-07-09T06:16:12;17.10;99.90
6639;DHT22;3355;52.882;8.430;2022-07-09T06:18:39;17.20;99.90
6639;DHT22;3355;52.882;8.430;2022-07-09T06:21:06;17.20;99.90
6639;DHT22;3355;52.882;8.430;2022-07-09T06:23:32;17.30;99.90
6639;DHT22;3355;52.882;8.430;2022-07-09T06:25:59;17.20;99.90
6639;DHT22;3355;52.882;8.430;2022-07-09T06:28:26;17.30;99.90
6639;DHT22;3355;52.882;8.430;2022-07-09T06:30:54;17.30;99.90
6639;DHT22;3355;52.882;8.430;2022-07-09T06:33:21;17.40;99.90
6639;DHT22;3355;52.882;8.430;2022-07-09T06:35:47;17.40;99.90
6639;DHT22;3355;52.882;8.430;2022-07-09T06:38:14;17.50;99.90
6639;DHT22;3355;52.882;8.430;2022-07-09T06:40:42;17.50;99.90
6639;DHT22;3355;52.882;8.430;2022-07-09T06:43:09;17.60;99.90
6639;DHT22;3355;52.882;8.430;2022-07-09T06:45:36;17.60;99.90
6639;DHT22;3355;52.882;8.430;2022-07-09T06:48:05;17.60;99.90
6639;DHT22;3355;52.882;8.430;2022-07-09T06:50:32;17.60;99.90
6639;DHT22;3355;52.882;8.430;2022-07-09T06:52:59;17.60;99.90
6639;DHT22;3355;52.882;8.430;2022-07-09T06:55:25;17.60;99.90
6639;DHT22;3355;52.882;8.430;2022-07-09T06:57:52;17.60;99.90
6639;DHT22;3355;52.882;8.430;2022-07-09T07:00:19;17.60;99.90
6639;DHT22;3355;52.882;8.430;2022-07-09T07:02:53;17.60;99.90
6639;DHT22;3355;52.882;8.430;2022-07-09T07:05:26;17.60;99.90
6639;DHT22;3355;52.882;8.430;2022-07-09T07:07:53;17.60;99.90
6639;DHT22;3355;52.882;8.430;2022-07-09T07:10:20;17.70;99.90
6639;DHT22;3355;52.882;8.430;2022-07-09T07:12:46;17.70;99.90
6639;DHT22;3355;52.882;8.430;2022-07-09T07:15:13;17.80;99.90
6639;DHT22;3355;52.882;8.430;2022-07-09T07:17:40;17.80;99.90
6639;DHT22;3355;52.882;8.430;2022-07-09T07:20:07;17.80;99.90
6639;DHT22;3355;52.882;8.430;2022-07-09T07:22:35;17.90;99.90
6639;DHT22;3355;52.882;8.430;2022-07-09T07:25:03;17.90;99.90
6639;DHT22;3355;52.882;8.430;2022-07-09T07:27:30;17.90;99.90
6639;DHT22;3355;52.882;8.430;2022-07-09T07:29:56;17.90;99.90
6639;DHT22;3355;52.882;8.430;2022-07-09T07:32:23;17.90;99.90
6639;DHT22;3355;52.882;8.430;2022-07-09T07:34:50;17.90;99.90
6639;DHT22;3355;52.882;8.430;2022-07-09T07:37:17;18.00;99.90
6639;DHT22;3355;52.882;8.430;2022-07-09T07:39:45;18.00;99.90
6639;DHT22;3355;52.882;8.430;2022-07-09T07:42:13;18.00;99.90
6639;DHT22;3355;52.882;8.430;2022-07-09T07:44:40;18.10;99.90
6639;DHT22;3355;52.882;8.430;2022-07-09T07:47:07;18.20;99.90
6639;DHT22;3355;52.882;8.430;2022-07-09T07:49:34;18.50;99.90
6639;DHT22;3355;52.882;8.430;2022-07-09T07:52:01;18.50;99.90
6639;DHT22;3355;52.882;8.430;2022-07-09T07:54:28;18.50;99.90
6639;DHT22;3355;52.882;8.430;2022-07-09T07:56:57;18.50;99.90
6639;DHT22;3355;52.882;8.430;2022-07-09T07:59:24;18.50;99.90
6639;DHT22;3355;52.882;8.430;2022-07-09T08:01:50;18.50;99.90
6639;DHT22;3355;52.882;8.430;2022-07-09T08:04:17;18.60;99.90
6639;DHT22;3355;52.882;8.430;2022-07-09T08:06:44;18.60;99.90
6639;DHT22;3355;52.882;8.430;2022-07-09T08:09:11;18.60;99.90
6639;DHT22;3355;52.882;8.430;2022-07-09T08:11:37;18.60;99.90
6639;DHT22;3355;52.882;8.430;2022-07-09T08:14:05;18.70;99.90
6639;DHT22;3355;52.882;8.430;2022-07-09T08:16:34;18.70;99.90
6639;DHT22;3355;52.882;8.430;2022-07-09T08:19:01;18.70;99.90
6639;DHT22;3355;52.882;8.430;2022-07-09T08:21:28;18.70;99.90
6639;DHT22;3355;52.882;8.430;2022-07-09T08:23:55;18.80;99.90
6639;DHT22;3355;52.882;8.430;2022-07-09T08:26:23;18.80;99.90
6639;DHT22;3355;52.882;8.430;2022-07-09T08:28:51;18.90;99.90
6639;DHT22;3355;52.882;8.430;2022-07-09T08:31:20;19.00;99.90
6639;DHT22;3355;52.882;8.430;2022-07-09T08:33:47;19.20;99.90
6639;DHT22;3355;52.882;8.430;2022-07-09T08:36:14;19.30;99.90
6639;DHT22;3355;52.882;8.430;2022-07-09T08:38:41;19.30;99.90
6639;DHT22;3355;52.882;8.430;2022-07-09T08:41:08;19.40;99.90
6639;DHT22;3355;52.882;8.430;2022-07-09T08:43:36;19.40;99.90
6639;DHT22;3355;52.882;8.430;2022-07-09T08:46:04;19.60;99.90
6639;DHT22;3355;52.882;8.430;2022-07-09T08:48:34;19.80;99.90
6639;DHT22;3355;52.882;8.430;2022-07-09T08:51:01;20.00;99.90
6639;DHT22;3355;52.882;8.430;2022-07-09T08:53:29;20.30;99.90
6639;DHT22;3355;52.882;8.430;2022-07-09T08:55:56;20.40;99.90
6639;DHT22;3355;52.882;8.430;2022-07-09T08:58:23;20.40;99.90
6639;DHT22;3355;52.882;8.430;2022-07-09T09:00:50;20.40;99.90
6639;DHT22;3355;52.882;8.430;2022-07-09T09:03:17;20.50;99.90
6639;DHT22;3355;52.882;8.430;2022-07-09T09:05:45;20.60;99.90
6639;DHT22;3355;52.882;8.430;2022-07-09T09:08:25;20.60;99.90
6639;DHT22;3355;52.882;8.430;2022-07-09T09:10:52;20.70;99.90
6639;DHT22;3355;52.882;8.430;2022-07-09T09:13:19;21.20;99.90
6639;DHT22;3355;52.882;8.430;2022-07-09T09:15:46;21.30;99.90
6639;DHT22;3355;52.882;8.430;2022-07-09T09:18:13;21.10;99.90
6639;DHT22;3355;52.882;8.430;2022-07-09T09:20:45;21.20;99.90
6639;DHT22;3355;52.882;8.430;2022-07-09T09:23:16;21.40;99.90
6639;DHT22;3355;52.882;8.430;2022-07-09T09:25:42;21.60;99.90
6639;DHT22;3355;52.882;8.430;2022-07-09T09:28:09;22.00;99.90
6639;DHT22;3355;52.882;8.430;2022-07-09T09:30:41;22.40;99.90
6639;DHT22;3355;52.882;8.430;2022-07-09T09:33:08;22.60;99.90
6639;DHT22;3355;52.882;8.430;2022-07-09T09:35:41;22.70;99.90
6639;DHT22;3355;52.882;8.430;2022-07-09T09:38:09;22.60;99.90
6639;DHT22;3355;52.882;8.430;2022-07-09T09:40:36;22.20;99.90
6639;DHT22;3355;52.882;8.430;2022-07-09T09:43:05;22.30;99.90
6639;DHT22;3355;52.882;8.430;2022-07-09T09:45:34;22.30;99.90
6639;DHT22;3355;52.882;8.430;2022-07-09T09:48:03;22.00;99.90
6639;DHT22;3355;52.882;8.430;2022-07-09T09:50:31;22.00;99.90
6639;DHT22;3355;52.882;8.430;2022-07-09T09:52:59;22.10;99.90
6639;DHT22;3355;52.882;8.430;2022-07-09T09:55:28;22.10;99.90
6639;DHT22;3355;52.882;8.430;2022-07-09T09:57:56;22.10;99.90
6639;DHT22;3355;52.882;8.430;2022-07-09T10:00:24;22.00;99.90
6639;DHT22;3355;52.882;8.430;2022-07-09T10:02:51;22.10;99.90
6639;DHT22;3355;52.882;8.430;2022-07-09T10:05:18;22.40;99.90
6639;DHT22;3355;52.882;8.430;2022-07-09T10:07:45;22.60;99.90
6639;DHT22;3355;52.882;8.430;2022-07-09T10:10:17;23.10;99.90
6639;DHT22;3355;52.882;8.430;2022-07-09T10:12:47;23.00;99.90
6639;DHT22;3355;52.882;8.430;2022-07-09T10:15:21;23.30;99.90
6639;DHT22;3355;52.882;8.430;2022-07-09T10:17:48;23.30;99.90
6639;DHT22;3355;52.882;8.430;2022-07-09T10:20:15;22.90;99.90
6639;DHT22;3355;52.882;8.430;2022-07-09T10:22:43;22.90;99.90
6639;DHT22;3355;52.882;8.430;2022-07-09T10:25:12;22.90;99.90
6639;DHT22;3355;52.882;8.430;2022-07-09T10:27:43;23.00;99.90
6639;DHT22;3355;52.882;8.430;2022-07-09T10:30:24;23.00;99.90
6639;DHT22;3355;52.882;8.430;2022-07-09T10:33:03;22.80;99.90
6639;DHT22;3355;52.882;8.430;2022-07-09T10:35:30;22.80;99.90
6639;DHT22;3355;52.882;8.430;2022-07-09T10:37:57;22.70;99.90
6639;DHT22;3355;52.882;8.430;2022-07-09T10:40:24;22.50;99.90
6639;DHT22;3355;52.882;8.430;2022-07-09T10:43:02;22.40;99.90
6639;DHT22;3355;52.882;8.430;2022-07-09T10:45:37;22.30;99.90
6639;DHT22;3355;52.882;8.430;2022-07-09T10:48:06;22.20;99.90
6639;DHT22;3355;52.882;8.430;2022-07-09T10:50:37;22.10;99.90
6639;DHT22;3355;52.882;8.430;2022-07-09T10:53:05;22.10;99.90
6639;DHT22;3355;52.882;8.430;2022-07-09T10:55:32;22.30;99.90
6639;DHT22;3355;52.882;8.430;2022-07-09T10:57:59;22.30;99.90
6639;DHT22;3355;52.882;8.430;2022-07-09T11:00:30;22.70;99.90
6639;DHT22;3355;52.882;8.430;2022-07-09T11:02:59;23.20;99.90
6639;DHT22;3355;52.882;8.430;2022-07-09T11:05:28;23.60;99.90
6639;DHT22;3355;52.882;8.430;2022-07-09T11:08:00;23.90;99.90
6639;DHT22;3355;52.882;8.430;2022-07-09T11:10:28;24.00;99.90
6639;DHT22;3355;52.882;8.430;2022-07-09T11:12:55;24.00;99.90
6639;DHT22;3355;52.882;8.430;2022-07-09T11:15:24;24.10;99.90
6639;DHT22;3355;52.882;8.430;2022-07-09T11:18:00;23.90;99.90
6639;DHT22;3355;52.882;8.430;2022-07-09T11:20:29;24.00;99.90
6639;DHT22;3355;52.882;8.430;2022-07-09T11:22:56;23.80;99.90
6639;DHT22;3355;52.882;8.430;2022-07-09T11:25:25;23.70;99.90
6639;DHT22;3355;52.882;8.430;2022-07-09T11:27:53;23.70;99.90
6639;DHT22;3355;52.882;8.430;2022-07-09T11:30:20;23.70;99.90
6639;DHT22;3355;52.882;8.430;2022-07-09T11:32:47;23.50;99.90
6639;DHT22;3355;52.882;8.430;2022-07-09T11:35:25;23.90;99.90
6639;DHT22;3355;52.882;8.430;2022-07-09T11:37:52;24.00;99.90
6639;DHT22;3355;52.882;8.430;2022-07-09T11:40:19;23.70;99.90
6639;DHT22;3355;52.882;8.430;2022-07-09T11:42:46;23.40;99.90
6639;DHT22;3355;52.882;8.430;2022-07-09T11:45:15;23.60;99.90
6639;DHT22;3355;52.882;8.430;2022-07-09T11:47:42;23.70;99.90
6639;DHT22;3355;52.882;8.430;2022-07-09T11:50:12;23.90;99.90
6639;DHT22;3355;52.882;8.430;2022-07-09T11:52:44;23.90;99.90
6639;DHT22;3355;52.882;8.430;2022-07-09T11:55:14;24.10;99.90
6639;DHT22;3355;52.882;8.430;2022-07-09T11:57:51;23.80;99.90
6639;DHT22;3355;52.882;8.430;2022-07-09T12:00:22;23.60;99.90
6639;DHT22;3355;52.882;8.430;2022-07-09T12:02:48;23.50;99.90
6639;DHT22;3355;52.882;8.430;2022-07-09T12:05:25;23.30;99.90
6639;DHT22;3355;52.882;8.430;2022-07-09T12:07:53;23.10;99.90
6639;DHT22;3355;52.882;8.430;2022-07-09T12:10:26;23.10;99.90
6639;DHT22;3355;52.882;8.430;2022-07-09T12:12:53;23.00;99.90
6639;DHT22;3355;52.882;8.430;2022-07-09T12:15:19;23.10;99.90
6639;DHT22;3355;52.882;8.430;2022-07-09T12:17:51;22.60;99.90
6639;DHT22;3355;52.882;8.430;2022-07-09T12:20:18;22.90;99.90
6639;DHT22;3355;52.882;8.430;2022-07-09T12:22:44;23.20;99.90
6639;DHT22;3355;52.882;8.430;2022-07-09T12:25:13;23.20;99.90
6639;DHT22;3355;52.882;8.430;2022-07-09T12:27:40;23.30;99.90
6639;DHT22;3355;52.882;8.430;2022-07-09T12:30:08;23.50;99.90
6639;DHT22;3355;52.882;8.430;2022-07-09T12:32:35;23.70;99.90
6639;DHT22;3355;52.882;8.430;2022-07-09T12:35:02;23.70;99.90
6639;DHT22;3355;52.882;8.430;2022-07-09T12:37:29;24.00;99.90
6639;DHT22;3355;52.882;8.430;2022-07-09T12:39:56;24.20;99.90
6639;DHT22;3355;52.882;8.430;2022-07-09T12:42:24;24.10;99.90
6639;DHT22;3355;52.882;8.430;2022-07-09T12:44:52;24.20;99.90
6639;DHT22;3355;52.882;8.430;2022-07-09T12:47:18;24.20;99.90
6639;DHT22;3355;52.882;8.430;2022-07-09T12:49:45;24.00;99.90
6639;DHT22;3355;52.882;8.430;2022-07-09T12:52:12;23.80;99.90
6639;DHT22;3355;52.882;8.430;2022-07-09T12:54:39;23.90;99.90
6639;DHT22;3355;52.882;8.430;2022-07-09T12:57:06;24.00;99.90
6639;DHT22;3355;52.882;8.430;2022-07-09T12:59:34;24.00;99.90
6639;DHT22;3355;52.882;8.430;2022-07-09T13:02:01;23.70;99.90
6639;DHT22;3355;52.882;8.430;2022-07-09T13:04:28;23.60;99.90
6639;DHT22;3355;52.882;8.430;2022-07-09T13:06:55;23.50;99.90
6639;DHT22;3355;52.882;8.430;2022-07-09T13:09:22;23.50;99.90
6639;DHT22;3355;52.882;8.430;2022-07-09T13:11:48;23.50;99.90
6639;DHT22;3355;52.882;8.430;2022-07-09T13:14:16;23.50;99.90
6639;DHT22;3355;52.882;8.430;2022-07-09T13:16:44;23.70;99.90
6639;DHT22;3355;52.882;8.430;2022-07-09T13:19:11;23.90;99.90
6639;DHT22;3355;52.882;8.430;2022-07-09T13:21:38;23.90;99.90
6639;DHT22;3355;52.882;8.430;2022-07-09T13:24:05;23.90;99.90
6639;DHT22;3355;52.882;8.430;2022-07-09T13:26:32;24.10;99.90
6639;DHT22;3355;52.882;8.430;2022-07-09T13:28:59;24.10;99.90
6639;DHT22;3355;52.882;8.430;2022-07-09T13:31:25;23.70;99.90
6639;DHT22;3355;52.882;8.430;2022-07-09T13:33:54;23.50;99.90
6639;DHT22;3355;52.882;8.430;2022-07-09T13:36:20;23.20;99.90
6639;DHT22;3355;52.882;8.430;2022-07-09T13:38:47;23.00;99.90
6639;DHT22;3355;52.882;8.430;2022-07-09T13:41:14;22.90;99.90
6639;DHT22;3355;52.882;8.430;2022-07-09T13:43:42;23.10;99.90
6639;DHT22;3355;52.882;8.430;2022-07-09T13:46:11;23.10;99.90
6639;DHT22;3355;52.882;8.430;2022-07-09T13:48:38;23.20;99.90
6639;DHT22;3355;52.882;8.430;2022-07-09T13:51:06;23.20;99.90
6639;DHT22;3355;52.882;8.430;2022-07-09T13:53:33;23.30;99.90
6639;DHT22;3355;52.882;8.430;2022-07-09T13:56:00;23.50;99.90
6639;DHT22;3355;52.882;8.430;2022-07-09T13:58:27;23.40;99.90
6639;DHT22;3355;52.882;8.430;2022-07-09T14:00:54;23.40;99.90
6639;DHT22;3355;52.882;8.430;2022-07-09T14:03:21;23.30;99.90
6639;DHT22;3355;52.882;8.430;2022-07-09T14:05:48;23.50;99.90
6639;DHT22;3355;52.882;8.430;2022-07-09T14:08:16;23.80;99.90
6639;DHT22;3355;52.882;8.430;2022-07-09T14:10:43;23.60;99.90
6639;DHT22;3355;52.882;8.430;2022-07-09T14:13:10;23.40;99.90
6639;DHT22;3355;52.882;8.430;2022-07-09T14:15:37;23.40;99.90
6639;DHT22;3355;52.882;8.430;2022-07-09T14:18:04;23.60;99.90
6639;DHT22;3355;52.882;8.430;2022-07-09T14:20:30;23.20;99.90
6639;DHT22;3355;52.882;8.430;2022-07-09T14:22:57;23.20;99.90
6639;DHT22;3355;52.882;8.430;2022-07-09T14:25:25;23.20;99.90
6639;DHT22;3355;52.882;8.430;2022-07-09T14:27:52;23.20;99.90
6639;DHT22;3355;52.882;8.430;2022-07-09T14:30:19;23.20;99.90
6639;DHT22;3355;52.882;8.430;2022-07-09T14:32:46;22.80;99.90
6639;DHT22;3355;52.882;8.430;2022-07-09T14:35:13;22.80;99.90
6639;DHT22;3355;52.882;8.430;2022-07-09T14:37:40;22.90;99.90
6639;DHT22;3355;52.882;8.430;2022-07-09T14:40:08;23.00;99.90
6639;DHT22;3355;52.882;8.430;2022-07-09T14:42:36;23.10;99.90
6639;DHT22;3355;52.882;8.430;2022-07-09T14:45:03;22.70;99.90
6639;DHT22;3355;52.882;8.430;2022-07-09T14:47:31;22.50;99.90
6639;DHT22;3355;52.882;8.430;2022-07-09T14:49:57;22.40;99.90
6639;DHT22;3355;52.882;8.430;2022-07-09T14:52:24;22.30;99.90
6639;DHT22;3355;52.882;8.430;2022-07-09T14:54:51;22.40;99.90
6639;DHT22;3355;52.882;8.430;2022-07-09T14:57:18;22.30;99.90
6639;DHT22;3355;52.882;8.430;2022-07-09T14:59:46;22.30;99.90
6639;DHT22;3355;52.882;8.430;2022-07-09T15:02:12;22.40;99.90
6639;DHT22;3355;52.882;8.430;2022-07-09T15:04:39;22.60;99.90
6639;DHT22;3355;52.882;8.430;2022-07-09T15:07:06;22.40;99.90
6639;DHT22;3355;52.882;8.430;2022-07-09T15:09:33;22.40;99.90
6639;DHT22;3355;52.882;8.430;2022-07-09T15:11:59;22.20;99.90
6639;DHT22;3355;52.882;8.430;2022-07-09T15:14:26;21.90;99.90
6639;DHT22;3355;52.882;8.430;2022-07-09T15:16:54;21.80;99.90
6639;DHT22;3355;52.882;8.430;2022-07-09T15:19:21;21.50;99.90
6639;DHT22;3355;52.882;8.430;2022-07-09T15:21:48;21.60;99.90
6639;DHT22;3355;52.882;8.430;2022-07-09T15:24:15;21.70;99.90
6639;DHT22;3355;52.882;8.430;2022-07-09T15:26:41;21.50;99.90
6639;DHT22;3355;52.882;8.430;2022-07-09T15:29:08;21.50;99.90
6639;DHT22;3355;52.882;8.430;2022-07-09T15:31:35;21.40;99.90
6639;DHT22;3355;52.882;8.430;2022-07-09T15:34:03;21.50;99.90
6639;DHT22;3355;52.882;8.430;2022-07-09T15:36:30;21.60;99.90
6639;DHT22;3355;52.882;8.430;2022-07-09T15:38:58;21.60;99.90
6639;DHT22;3355;52.882;8.430;2022-07-09T15:41:25;21.70;99.90
6639;DHT22;3355;52.882;8.430;2022-07-09T15:43:52;21.50;99.90
6639;DHT22;3355;52.882;8.430;2022-07-09T15:46:19;21.40;99.90
6639;DHT22;3355;52.882;8.430;2022-07-09T15:48:45;21.30;99.90
6639;DHT22;3355;52.882;8.430;2022-07-09T15:51:13;21.40;99.90
6639;DHT22;3355;52.882;8.430;2022-07-09T15:53:40;21.40;99.90
6639;DHT22;3355;52.882;8.430;2022-07-09T15:56:07;21.40;99.90
6639;DHT22;3355;52.882;8.430;2022-07-09T15:58:33;21.60;99.90
6639;DHT22;3355;52.882;8.430;2022-07-09T16:01:00;21.40;99.90
6639;DHT22;3355;52.882;8.430;2022-07-09T16:03:27;21.20;99.90